Time;durP1;ratioP1;P1;durP2;ratioP2;P2;SDS_P1;SDS_P2;PMS_P1;PMS_P2;Temp;Humidity;BMP_temperature;BMP_pressure;BME280_temperature;BME280_humidity;BME280_pressure;Samples;Min_cycle;Max_cycle;Signal;HPM_P1;HPM_P2
2022/07/04 00:00:12;;;;;;;;;1.25;1.00;;;;;20.90;47.24;101876.44;5061798;28;45349;-55
2022/07/04 00:02:41;;;;;;;;;0.50;0.50;;;;;20.85;47.70;101873.31;5061675;28;45405;-53
2022/07/04 00:05:10;;;;;;;;;1.00;1.00;;;;;20.80;47.45;101878.22;5061727;28;45151;-51
2022/07/04 00:07:36;;;;;;;;;0.00;0.00;;;;;20.75;48.11;101875.91;5061915;28;45437;-51
2022/07/04 00:10:03;;;;;;;;;0.00;0.00;;;;;20.74;47.59;101876.06;5061463;28;45355;-50
2022/07/04 00:12:29;;;;;;;;;0.00;0.00;;;;;20.71;47.72;101882.53;5061579;28;45354;-51
2022/07/04 00:14:54;;;;;;;;;2.25;0.00;;;;;20.63;47.59;101872.47;5061591;28;45237;-55
2022/07/04 00:17:20;;;;;;;;;0.75;0.50;;;;;20.63;47.71;101879.63;5062009;28;45286;-51
2022/07/04 00:19:45;;;;;;;;;0.75;0.75;;;;;20.61;48.03;101877.06;5061346;28;45325;-53
2022/07/04 00:22:10;;;;;;;;;1.00;0.50;;;;;20.58;47.82;101877.34;5061704;28;45282;-54
2022/07/04 00:24:36;;;;;;;;;2.00;0.00;;;;;20.57;47.84;101883.66;5062290;28;45290;-54
2022/07/04 00:27:01;;;;;;;;;0.00;0.00;;;;;20.56;47.96;101881.97;5072420;27;45302;-54
2022/07/04 00:29:27;;;;;;;;;1.75;0.75;;;;;20.55;48.34;101879.44;5061287;28;46169;-54
2022/07/04 00:31:53;;;;;;;;;0.00;0.00;;;;;20.53;48.19;101874.19;5061685;28;45353;-55
2022/07/04 00:34:18;;;;;;;;;1.25;0.00;;;;;20.52;48.43;101872.47;5061444;28;45473;-54
2022/07/04 00:36:44;;;;;;;;;0.25;0.00;;;;;20.48;47.91;101881.75;5061480;28;45465;-53
2022/07/04 00:39:09;;;;;;;;;3.00;0.50;;;;;20.44;48.05;101876.78;5060760;28;46042;-54
2022/07/04 00:41:35;;;;;;;;;2.50;0.00;;;;;20.43;48.06;101881.25;5061226;28;45340;-53
2022/07/04 00:44:01;;;;;;;;;0.50;0.00;;;;;20.42;48.31;101884.06;5061260;28;45570;-53
2022/07/04 00:46:27;;;;;;;;;0.00;0.00;;;;;20.40;48.04;101884.19;5061267;28;45408;-52
2022/07/04 00:48:52;;;;;;;;;0.00;0.00;;;;;20.35;48.41;101884.56;5060976;28;45952;-53
2022/07/04 00:51:18;;;;;;;;;0.50;0.00;;;;;20.29;48.44;101884.22;5061413;28;45235;-55
2022/07/04 00:53:45;;;;;;;;;0.00;0.00;;;;;20.23;48.46;101890.09;5061243;28;45408;-51
2022/07/04 00:56:10;;;;;;;;;0.00;0.00;;;;;20.21;48.54;101890.19;5061563;28;45229;-53
2022/07/04 00:58:37;;;;;;;;;1.75;1.00;;;;;20.21;48.30;101887.50;5060655;28;45230;-52
2022/07/04 01:01:02;;;;;;;;;1.75;0.00;;;;;20.21;48.34;101886.66;5061240;28;45280;-53
2022/07/04 01:03:28;;;;;;;;;1.00;0.00;;;;;20.22;48.69;101888.34;5060494;28;45535;-53
2022/07/04 01:05:54;;;;;;;;;1.00;1.00;;;;;20.20;48.89;101883.13;5061249;28;45465;-54
2022/07/04 01:08:19;;;;;;;;;0.25;0.00;;;;;20.19;48.58;101892.16;5061062;28;45344;-52
2022/07/04 01:10:45;;;;;;;;;0.00;0.00;;;;;20.18;48.74;101889.59;5061061;28;45247;-54
2022/07/04 01:13:20;;;;;;;;;1.00;0.00;;;;;20.16;48.49;101892.41;5060951;28;45387;-55
2022/07/04 01:15:46;;;;;;;;;1.00;1.00;;;;;20.16;48.73;101889.72;5061188;28;45307;-55
2022/07/04 01:18:12;;;;;;;;;0.75;0.00;;;;;20.15;48.49;101889.88;5060396;28;45282;-52
2022/07/04 01:20:37;;;;;;;;;1.75;0.00;;;;;20.14;48.65;101891.66;5060919;28;45326;-55
2022/07/04 01:23:03;;;;;;;;;0.50;0.00;;;;;20.12;48.86;101885.59;5060761;28;45287;-54
2022/07/04 01:25:28;;;;;;;;;1.00;0.00;;;;;20.12;48.93;101880.25;5068968;28;45228;-54
2022/07/04 01:27:54;;;;;;;;;0.25;0.25;;;;;20.12;49.25;101890.94;5062282;28;47874;-54
2022/07/04 01:30:19;;;;;;;;;1.00;0.25;;;;;20.12;48.68;101890.94;5060784;28;45343;-54
2022/07/04 01:32:45;;;;;;;;;0.00;0.00;;;;;20.11;48.79;101880.38;5059266;28;45213;-53
2022/07/04 01:35:12;;;;;;;;;1.75;0.00;;;;;20.09;49.05;101883.19;5060740;28;45525;-52
2022/07/04 01:37:38;;;;;;;;;1.00;0.50;;;;;20.08;49.18;101889.50;5060413;28;45384;-53
2022/07/04 01:40:04;;;;;;;;;0.25;0.00;;;;;20.06;49.29;101884.28;5060519;28;45256;-53
2022/07/04 01:42:29;;;;;;;;;1.50;0.50;;;;;20.05;49.30;101889.72;5060244;28;45257;-53
2022/07/04 01:44:55;;;;;;;;;1.75;0.75;;;;;20.06;48.71;101883.41;5060559;28;45397;-54
2022/07/04 01:47:20;;;;;;;;;0.50;0.50;;;;;20.04;48.99;101880.00;5086288;27;45275;-54
2022/07/04 01:49:46;;;;;;;;;0.00;0.00;;;;;20.03;49.14;101875.63;5061790;28;45297;-55
2022/07/04 01:52:11;;;;;;;;;1.25;1.00;;;;;20.00;48.81;101879.44;5064035;28;45263;-53
2022/07/04 01:54:37;;;;;;;;;0.00;0.00;;;;;19.97;49.09;101878.81;5064258;28;45470;-54
2022/07/04 01:57:03;;;;;;;;;0.75;0.00;;;;;19.94;49.15;101885.25;5063572;28;45307;-53
2022/07/04 02:02:12;;;;;;;;;0.75;0.75;;;;;19.95;48.69;101872.75;5064035;28;45201;-53
2022/07/04 02:04:38;;;;;;;;;0.50;0.00;;;;;19.93;49.22;101880.03;5063426;28;45259;-54
2022/07/04 02:07:03;;;;;;;;;0.00;0.00;;;;;19.90;48.76;101878.44;5063715;28;45207;-54
2022/07/04 02:09:30;;;;;;;;;0.00;0.00;;;;;19.88;48.83;101877.72;5063727;28;45235;-52
2022/07/04 02:14:41;;;;;;;;;1.00;1.00;;;;;19.81;49.31;101881.88;5063813;28;45394;-52
2022/07/04 02:17:07;;;;;;;;;0.50;0.25;;;;;19.79;48.71;101875.78;5063227;28;46307;-55
2022/07/04 02:19:32;;;;;;;;;1.00;1.00;;;;;19.78;48.76;101874.09;5063468;28;45210;-55
2022/07/04 02:21:58;;;;;;;;;3.00;0.75;;;;;19.76;48.90;101878.72;5063719;28;45469;-54
2022/07/04 02:24:23;;;;;;;;;0.00;0.00;;;;;19.68;49.09;101867.78;5063615;28;45353;-55
2022/07/04 02:26:49;;;;;;;;;0.00;0.00;;;;;19.66;49.59;101870.56;5074264;28;46205;-54
2022/07/04 02:29:15;;;;;;;;;0.75;0.50;;;;;19.65;49.50;101876.03;5063359;28;45293;-53
2022/07/04 02:31:41;;;;;;;;;1.00;1.00;;;;;19.64;49.53;101871.66;5063431;28;45276;-52
2022/07/04 02:34:07;;;;;;;;;1.25;1.25;;;;;19.62;49.38;101871.81;5063311;28;45308;-52
2022/07/04 02:36:32;;;;;;;;;2.00;1.00;;;;;19.57;50.08;101862.44;5063191;28;46189;-54
2022/07/04 02:38:58;;;;;;;;;0.50;0.25;;;;;19.57;49.62;101870.44;5063220;28;45193;-53
2022/07/04 02:41:23;;;;;;;;;1.00;1.00;;;;;19.56;49.60;101880.25;5063575;28;45279;-53
2022/07/04 02:43:49;;;;;;;;;1.00;0.00;;;;;19.53;50.32;101870.69;5063055;28;45616;-51
2022/07/04 02:46:14;;;;;;;;;1.00;1.00;;;;;19.50;50.38;101876.25;5062972;28;45427;-55
2022/07/04 02:48:40;;;;;;;;;1.00;1.00;;;;;19.46;49.89;101879.28;5062876;28;45172;-54
2022/07/04 02:51:05;;;;;;;;;1.75;1.00;;;;;19.41;50.25;101862.75;5063306;28;45359;-55
2022/07/04 02:53:31;;;;;;;;;0.25;0.25;;;;;19.35;50.53;101871.25;5063054;28;45291;-54
2022/07/04 02:55:56;;;;;;;;;1.00;1.00;;;;;19.33;50.27;101875.88;5062976;28;46119;-53
2022/07/04 02:58:21;;;;;;;;;0.75;0.75;;;;;19.31;50.33;101875.16;5062661;28;45156;-55
2022/07/04 03:00:47;;;;;;;;;3.50;0.75;;;;;19.31;50.26;101878.66;5063078;28;45465;-54
2022/07/04 03:03:12;;;;;;;;;1.00;1.00;;;;;19.30;50.35;101881.47;5062448;28;45479;-53
2022/07/04 03:05:38;;;;;;;;;2.00;1.00;;;;;19.25;51.00;101884.50;5062816;28;45362;-54
2022/07/04 03:08:04;;;;;;;;;0.75;0.75;;;;;19.20;50.78;101881.34;5062632;28;45333;-54
2022/07/04 03:10:29;;;;;;;;;3.00;0.50;;;;;19.15;51.17;101880.84;5063067;28;45344;-55
2022/07/04 03:12:54;;;;;;;;;1.00;0.25;;;;;19.09;51.05;101887.50;5062477;28;45377;-52
2022/07/04 03:15:20;;;;;;;;;1.00;1.00;;;;;19.04;51.31;101892.34;5062694;28;46277;-53
2022/07/04 03:17:45;;;;;;;;;1.75;1.00;;;;;19.00;51.00;101895.38;5062431;28;45256;-53
2022/07/04 03:20:11;;;;;;;;;0.50;0.00;;;;;18.96;51.21;101892.94;5069756;28;45260;-52
2022/07/04 03:22:36;;;;;;;;;1.00;1.00;;;;;18.92;51.13;101894.13;5082843;28;45287;-54
2022/07/04 03:25:02;;;;;;;;;5.00;0.00;;;;;18.90;51.56;101897.88;5082530;28;45295;-54
2022/07/04 03:27:27;;;;;;;;;1.00;1.00;;;;;18.85;51.18;101902.72;5069213;27;45390;-55
2022/07/04 03:29:53;;;;;;;;;0.00;0.00;;;;;18.84;51.60;101903.69;5062602;28;45302;-53
2022/07/04 03:32:19;;;;;;;;;3.00;0.50;;;;;18.83;51.68;101900.16;5062606;28;45470;-52
2022/07/04 03:34:44;;;;;;;;;1.50;1.00;;;;;18.82;51.64;101901.13;5062413;28;45308;-55
2022/07/04 03:37:10;;;;;;;;;1.75;1.00;;;;;18.81;51.75;101898.59;5062261;28;45312;-55
2022/07/04 03:39:35;;;;;;;;;0.75;0.00;;;;;18.79;51.77;101900.50;5062545;28;45278;-54
2022/07/04 03:42:01;;;;;;;;;2.00;0.75;;;;;18.76;51.50;101900.75;5062289;28;45297;-54
2022/07/04 03:44:26;;;;;;;;;2.50;1.00;;;;;18.75;51.61;101910.56;5062126;28;46123;-54
2022/07/04 03:46:51;;;;;;;;;0.25;0.25;;;;;18.76;51.53;101908.75;5062020;28;45152;-54
2022/07/04 03:49:17;;;;;;;;;2.00;1.00;;;;;18.75;51.66;101907.91;5062193;28;45299;-53
2022/07/04 03:51:42;;;;;;;;;0.00;0.00;;;;;18.76;52.11;101900.75;5062209;28;45225;-55
2022/07/04 03:54:08;;;;;;;;;2.25;1.00;;;;;18.77;52.25;101895.28;5061851;28;45343;-55
2022/07/04 03:56:33;;;;;;;;;0.00;0.00;;;;;18.76;52.03;101895.41;5061734;28;45469;-52
2022/07/04 03:58:59;;;;;;;;;0.00;0.00;;;;;18.76;51.87;101890.06;5061968;28;45341;-54
2022/07/04 04:01:24;;;;;;;;;1.00;1.00;;;;;18.78;52.17;101888.13;5062168;28;45334;-50
2022/07/04 04:06:34;;;;;;;;;2.00;1.00;;;;;18.75;52.01;101889.22;5061899;28;45373;-55
2022/07/04 04:08:59;;;;;;;;;2.00;0.75;;;;;18.78;52.20;101888.13;5062156;28;45305;-53
2022/07/04 04:11:25;;;;;;;;;2.00;0.00;;;;;18.78;51.90;101896.13;5061804;28;45329;-55
2022/07/04 04:13:50;;;;;;;;;2.00;1.00;;;;;18.80;52.22;101895.06;5061180;28;45932;-55
2022/07/04 04:16:16;;;;;;;;;1.00;1.00;;;;;18.80;52.17;101894.19;5061666;28;45329;-54
2022/07/04 04:18:41;;;;;;;;;3.00;2.00;;;;;18.78;52.06;101894.31;5061808;28;45318;-55
2022/07/04 04:21:07;;;;;;;;;4.75;2.00;;;;;18.80;52.22;101897.75;5061577;28;45401;-53
2022/07/04 04:23:32;;;;;;;;;40.25;13.50;;;;;18.79;52.56;101897.84;5061486;28;45360;-55
2022/07/04 04:25:58;;;;;;;;;2.75;1.00;;;;;18.79;51.93;101897.84;5072767;28;45260;-53
2022/07/04 04:28:23;;;;;;;;;2.00;1.00;;;;;18.77;52.01;101911.31;5061633;28;45169;-50
2022/07/04 04:30:50;;;;;;;;;2.00;1.25;;;;;18.79;52.62;101914.69;5061917;28;45377;-54
2022/07/04 04:33:15;;;;;;;;;1.00;1.00;;;;;18.82;52.22;101919.81;5061399;28;45215;-53
2022/07/04 04:35:41;;;;;;;;;1.50;1.00;;;;;18.85;52.46;101922.25;5061272;28;45295;-55
2022/07/04 04:38:06;;;;;;;;;1.00;1.00;;;;;18.88;52.53;101923.81;5061481;28;45223;-53
2022/07/04 04:40:32;;;;;;;;;2.25;2.25;;;;;18.92;52.25;101914.63;5061462;28;45239;-54
2022/07/04 04:42:57;;;;;;;;;3.50;2.00;;;;;18.93;52.54;101906.50;5061091;28;45384;-55
2022/07/04 04:45:23;;;;;;;;;5.50;2.00;;;;;18.95;52.23;101911.72;5061253;28;45662;-53
2022/07/04 04:47:48;;;;;;;;;1.00;0.00;;;;;18.99;52.65;101912.34;5061371;28;45297;-54
2022/07/04 04:50:14;;;;;;;;;4.50;1.00;;;;;19.04;52.64;101912.84;5061221;28;45449;-50
2022/07/04 04:52:41;;;;;;;;;1.50;1.00;;;;;19.02;52.17;101915.63;5061161;28;45344;-54
2022/07/04 04:55:07;;;;;;;;;2.75;1.75;;;;;19.04;52.61;101921.72;5060989;28;45322;-54
2022/07/04 04:57:33;;;;;;;;;2.00;1.00;;;;;19.02;52.25;101920.13;5060922;28;45297;-52
2022/07/04 04:59:58;;;;;;;;;2.75;2.00;;;;;18.98;52.27;101911.50;5060997;28;45255;-54
2022/07/04 05:02:24;;;;;;;;;1.50;1.50;;;;;18.97;52.61;101920.50;5060629;28;45898;-54
2022/07/04 05:04:49;;;;;;;;;2.50;2.00;;;;;18.95;52.52;101922.41;5060617;28;45204;-54
2022/07/04 05:07:15;;;;;;;;;3.25;3.00;;;;;18.96;52.79;101922.31;5060908;28;45332;-53
2022/07/04 05:09:41;;;;;;;;;3.25;1.25;;;;;18.99;52.89;101918.53;5060944;28;45449;-54
2022/07/04 05:12:07;;;;;;;;;10.25;4.00;;;;;19.00;52.54;101920.25;5060633;28;46078;-55
2022/07/04 05:14:32;;;;;;;;;3.00;2.75;;;;;19.00;52.95;101917.56;5060754;28;45656;-55
2022/07/04 05:16:58;;;;;;;;;6.75;2.00;;;;;18.99;53.22;101917.69;5060950;28;45357;-55
2022/07/04 05:19:23;;;;;;;;;2.75;2.75;;;;;19.01;52.76;101921.94;5060826;28;45554;-55
2022/07/04 05:21:49;;;;;;;;;2.00;2.00;;;;;18.98;53.09;101921.34;5060589;28;45361;-55
2022/07/04 05:24:14;;;;;;;;;3.75;3.00;;;;;18.97;52.75;101923.16;5060948;28;45356;-55
2022/07/04 05:26:40;;;;;;;;;2.50;2.00;;;;;18.94;52.78;101924.22;5075615;28;45319;-53
2022/07/04 05:29:05;;;;;;;;;2.25;2.00;;;;;19.00;53.09;101919.41;5064352;28;45491;-54
2022/07/04 05:31:31;;;;;;;;;5.50;1.75;;;;;19.06;52.98;101919.78;5064028;28;46162;-52
2022/07/04 05:33:57;;;;;;;;;2.00;2.00;;;;;19.12;52.91;101918.47;5064144;28;45337;-53
2022/07/04 05:36:23;;;;;;;;;3.25;3.00;;;;;19.18;53.16;101920.66;5064315;28;45299;-55
2022/07/04 05:38:49;;;;;;;;;3.00;3.00;;;;;19.25;52.66;101925.41;5064046;28;45236;-54
2022/07/04 05:41:14;;;;;;;;;4.00;4.00;;;;;19.32;53.07;101917.78;5063715;28;45988;-54
2022/07/04 05:43:40;;;;;;;;;3.75;2.00;;;;;19.43;52.82;101920.47;5063804;28;45428;-54
2022/07/04 05:46:07;;;;;;;;;4.00;3.00;;;;;19.50;52.72;101924.34;5063539;28;45285;-54
2022/07/04 05:48:32;;;;;;;;;4.00;3.25;;;;;19.58;52.51;101918.44;5063923;28;45228;-52
2022/07/04 05:50:58;;;;;;;;;5.00;4.00;;;;;19.65;52.94;101916.13;5063564;28;45801;-51
2022/07/04 05:53:23;;;;;;;;;6.50;4.00;;;;;19.70;52.42;101917.50;5063912;28;45383;-52
2022/07/04 05:55:49;;;;;;;;;7.00;4.25;;;;;19.72;52.48;101918.22;5063713;28;45505;-55
2022/07/04 05:58:14;;;;;;;;;7.25;3.25;;;;;19.75;52.43;101923.34;5063843;28;45362;-54
2022/07/04 06:00:40;;;;;;;;;5.00;5.00;;;;;19.81;52.69;101913.94;5063539;28;46010;-53
2022/07/04 06:03:06;;;;;;;;;4.75;3.00;;;;;19.89;52.29;101921.38;5063408;28;45415;-53
2022/07/04 06:05:32;;;;;;;;;9.00;7.00;;;;;19.93;52.09;101917.47;5063596;28;45473;-54
2022/07/04 06:07:57;;;;;;;;;8.00;4.50;;;;;19.97;52.39;101921.59;5063840;28;45322;-55
2022/07/04 06:10:23;;;;;;;;;5.25;4.00;;;;;19.99;52.63;101920.53;5063398;28;45453;-52
2022/07/04 06:12:49;;;;;;;;;4.50;3.00;;;;;20.06;52.47;101924.41;5063481;28;45228;-55
2022/07/04 06:15:15;;;;;;;;;8.00;5.00;;;;;20.13;52.47;101922.06;5063366;28;45267;-53
2022/07/04 06:17:41;;;;;;;;;7.50;3.50;;;;;20.12;52.16;101917.69;5063538;28;45550;-53
2022/07/04 06:20:07;;;;;;;;;4.25;4.25;;;;;20.17;52.10;101922.69;5063115;28;46072;-55
2022/07/04 06:22:41;;;;;;;;;5.00;3.00;;;;;20.18;52.06;101935.09;5063326;28;45498;-55
2022/07/04 06:25:11;;;;;;;;;7.25;4.00;;;;;20.21;52.18;101933.00;5070505;28;45362;-53
2022/07/04 06:27:36;;;;;;;;;3.00;1.25;;;;;20.22;51.75;101926.69;5068512;27;45452;-52
2022/07/04 06:30:02;;;;;;;;;4.25;3.25;;;;;20.30;52.05;101926.03;5063149;28;46203;-52
2022/07/04 06:32:27;;;;;;;;;3.75;3.00;;;;;20.31;51.71;101931.28;5063082;28;45325;-53
2022/07/04 06:37:37;;;;;;;;;4.50;3.00;;;;;20.38;51.63;101936.13;5063143;28;45402;-53
2022/07/04 06:40:03;;;;;;;;;5.25;3.25;;;;;20.41;51.64;101935.88;5062853;28;45975;-54
2022/07/04 06:42:29;;;;;;;;;4.25;3.00;;;;;20.47;51.33;101938.97;5062654;28;45251;-54
2022/07/04 06:44:54;;;;;;;;;7.75;6.00;;;;;20.56;51.20;101926.63;5063018;28;45187;-55
2022/07/04 06:47:19;;;;;;;;;13.25;12.50;;;;;20.62;51.16;101928.81;5062840;28;45237;-54
2022/07/04 06:49:45;;;;;;;;;4.00;4.00;;;;;20.62;51.48;101928.81;5062699;28;46287;-52
2022/07/04 06:52:10;;;;;;;;;3.00;2.00;;;;;20.66;51.27;101930.25;5062978;28;45149;-52
2022/07/04 06:54:36;;;;;;;;;3.00;2.25;;;;;20.68;51.26;101932.78;5062960;28;45298;-54
2022/07/04 06:57:01;;;;;;;;;7.50;4.25;;;;;20.72;50.62;101931.56;5062781;28;45315;-53
2022/07/04 06:59:27;;;;;;;;;5.75;4.00;;;;;20.74;50.54;101930.44;5062886;28;45250;-53
2022/07/04 07:01:52;;;;;;;;;5.00;4.00;;;;;20.80;50.74;101932.63;5062573;28;45310;-53
2022/07/04 07:04:18;;;;;;;;;6.50;3.25;;;;;20.83;51.06;101940.41;5062626;28;45251;-54
2022/07/04 07:06:43;;;;;;;;;6.00;2.00;;;;;20.86;50.61;101936.63;5062894;28;45235;-53
2022/07/04 07:09:09;;;;;;;;;5.50;3.25;;;;;20.85;50.30;101941.13;5062723;28;46209;-53
2022/07/04 07:11:34;;;;;;;;;5.50;3.50;;;;;20.88;50.23;101951.59;5062387;28;45291;-54
2022/07/04 07:14:00;;;;;;;;;5.75;3.00;;;;;20.92;50.44;101953.00;5062773;28;45362;-55
2022/07/04 07:16:25;;;;;;;;;4.00;3.00;;;;;20.92;50.24;101954.84;5062507;28;45372;-54
2022/07/04 07:18:51;;;;;;;;;6.00;3.50;;;;;20.91;50.17;101953.16;5062314;28;46069;-54
2022/07/04 07:21:16;;;;;;;;;5.25;3.25;;;;;20.90;49.92;101957.66;5062354;28;45332;-53
2022/07/04 07:23:43;;;;;;;;;2.25;2.25;;;;;20.89;49.84;101953.28;5062324;28;45239;-52
2022/07/04 07:26:09;;;;;;;;;4.00;1.75;;;;;20.88;49.71;101959.63;5073125;28;45224;-52
2022/07/04 07:28:35;;;;;;;;;2.25;2.25;;;;;20.90;49.69;101960.34;5062249;28;46084;-52
2022/07/04 07:31:02;;;;;;;;;3.00;3.00;;;;;20.96;49.93;101950.09;5062199;28;45215;-51
2022/07/04 07:33:27;;;;;;;;;5.00;3.00;;;;;21.01;49.42;101948.72;5062266;28;45286;-50
2022/07/04 07:35:53;;;;;;;;;2.50;2.50;;;;;21.10;49.06;101955.16;5062191;28;45144;-53
2022/07/04 07:38:18;;;;;;;;;3.00;2.50;;;;;21.17;49.51;101958.97;5062215;28;45394;-52
2022/07/04 07:40:44;;;;;;;;;5.50;1.75;;;;;21.21;49.40;101952.41;5061947;28;45301;-54
2022/07/04 07:43:09;;;;;;;;;6.25;2.75;;;;;21.24;49.28;101944.09;5062085;28;45390;-54
2022/07/04 07:45:35;;;;;;;;;5.75;4.25;;;;;21.27;49.43;101948.34;5061925;28;45513;-53
2022/07/04 07:48:00;;;;;;;;;5.50;4.00;;;;;21.28;49.00;101942.88;5061096;28;46117;-52
2022/07/04 07:50:26;;;;;;;;;5.00;4.00;;;;;21.32;49.54;101943.47;5061942;28;45303;-55
2022/07/04 07:52:51;;;;;;;;;5.75;3.50;;;;;21.34;49.08;101941.53;5062293;28;45321;-54
2022/07/04 07:55:17;;;;;;;;;6.75;5.00;;;;;21.38;49.09;101934.91;5061897;28;45516;-53
2022/07/04 07:57:42;;;;;;;;;6.00;4.50;;;;;21.40;49.04;101938.28;5061878;28;46343;-53
2022/07/04 08:00:08;;;;;;;;;6.00;5.00;;;;;21.39;48.89;101939.28;5061737;28;45464;-50
2022/07/04 08:05:18;;;;;;;;;2.25;0.75;;;;;21.40;48.39;101935.59;5061756;28;45320;-54
2022/07/04 08:07:43;;;;;;;;;1.50;1.00;;;;;21.35;48.26;101941.38;5061311;28;45207;-53
2022/07/04 08:10:09;;;;;;;;;3.50;2.25;;;;;21.33;47.88;101942.47;5061648;28;45398;-54
2022/07/04 08:12:35;;;;;;;;;2.25;1.75;;;;;21.35;47.80;101933.34;5061444;28;45472;-52
2022/07/04 08:15:00;;;;;;;;;3.75;1.00;;;;;21.33;47.72;101935.31;5061400;28;45343;-55
2022/07/04 08:17:27;;;;;;;;;2.25;1.00;;;;;21.39;47.91;101931.22;5059893;28;46493;-52
2022/07/04 08:19:53;;;;;;;;;3.75;3.00;;;;;21.46;47.86;101932.41;5061179;28;45264;-50
2022/07/04 08:22:18;;;;;;;;;3.75;1.75;;;;;21.48;47.44;101933.13;5061639;28;45482;-51
2022/07/04 08:24:44;;;;;;;;;2.25;1.50;;;;;21.56;47.79;101932.44;5063275;28;45286;-49
2022/07/04 08:27:10;;;;;;;;;2.50;1.50;;;;;21.61;47.52;101935.59;5070633;27;45893;-55
2022/07/04 08:29:36;;;;;;;;;3.25;2.50;;;;;21.62;47.23;101932.78;5061137;28;45273;-53
2022/07/04 08:32:01;;;;;;;;;1.75;1.50;;;;;21.65;47.27;101937.88;5061276;28;45475;-54
2022/07/04 08:34:27;;;;;;;;;5.25;3.25;;;;;21.68;47.20;101937.59;5061338;28;45442;-50
2022/07/04 08:36:52;;;;;;;;;4.75;2.75;;;;;21.68;47.27;101936.75;5061299;28;45268;-53
2022/07/04 08:39:18;;;;;;;;;4.00;3.00;;;;;21.71;47.08;101929.28;5061250;28;45344;-54
2022/07/04 08:41:43;;;;;;;;;3.00;3.00;;;;;21.74;46.94;101926.34;5061266;28;45176;-54
2022/07/04 08:44:11;;;;;;;;;2.50;1.25;;;;;21.74;46.89;101926.34;5061275;28;45161;-53
2022/07/04 08:46:41;;;;;;;;;0.75;0.75;;;;;21.78;46.86;101920.72;5061062;28;45314;-52
2022/07/04 08:49:15;;;;;;;;;3.50;1.75;;;;;21.82;46.49;101920.31;5061006;28;45330;-54
2022/07/04 08:51:49;;;;;;;;;4.00;2.00;;;;;21.84;46.26;101915.66;5061197;28;45332;-54
2022/07/04 08:59:48;;;;;;;;;1.75;0.75;;;;;21.85;45.98;101913.81;5060708;28;45227;-50
2022/07/04 09:02:16;;;;;;;;;3.00;1.75;;;;;21.84;45.74;101907.59;5060656;28;45227;-54
2022/07/04 09:04:43;;;;;;;;;3.00;2.50;;;;;21.85;45.99;101906.63;5060644;28;45274;-51
2022/07/04 09:07:12;;;;;;;;;1.50;1.50;;;;;21.87;45.61;101901.13;5060847;28;45486;-53
2022/07/04 09:09:39;;;;;;;;;1.75;1.75;;;;;21.92;45.59;101909.63;5060788;28;45323;-51
2022/07/04 09:12:05;;;;;;;;;3.50;0.75;;;;;21.98;45.41;101901.88;5060659;28;45274;-53
2022/07/04 09:14:32;;;;;;;;;2.00;2.00;;;;;22.00;45.33;101905.25;5060974;28;45542;-52
2022/07/04 09:16:58;;;;;;;;;2.00;1.00;;;;;22.05;45.17;101899.50;5060812;28;45398;-53
2022/07/04 09:19:23;;;;;;;;;4.00;0.75;;;;;22.09;45.38;101894.72;5060382;28;45448;-50
2022/07/04 09:21:49;;;;;;;;;1.75;1.75;;;;;22.13;45.47;101891.63;5067967;28;45373;-54
2022/07/04 09:24:15;;;;;;;;;0.25;0.25;;;;;22.20;45.11;101892.78;5080816;28;45509;-54
2022/07/04 09:26:45;;;;;;;;;4.50;3.00;;;;;22.27;45.44;101885.00;5073850;28;46326;-53
2022/07/04 09:29:11;;;;;;;;;3.00;2.00;;;;;22.32;44.69;101888.13;5060235;28;45237;-54
2022/07/04 09:31:38;;;;;;;;;2.25;2.25;;;;;22.38;45.08;101889.41;5060752;28;45355;-55
2022/07/04 09:34:05;;;;;;;;;3.50;2.75;;;;;22.45;44.53;101893.25;5060580;28;45621;-55
2022/07/04 09:36:40;;;;;;;;;1.00;1.00;;;;;22.51;44.47;101892.66;5060462;28;45338;-54
2022/07/04 09:39:14;;;;;;;;;1.50;0.75;;;;;22.55;43.87;101892.25;5060321;28;45318;-55
2022/07/04 09:42:02;;;;;;;;;1.00;0.00;;;;;22.62;43.66;101883.63;5060354;28;45282;-54
2022/07/04 09:44:33;;;;;;;;;6.75;3.25;;;;;22.71;43.30;101890.84;5060219;28;45323;-53
2022/07/04 09:46:59;;;;;;;;;1.50;1.50;;;;;22.78;43.49;101878.53;5060111;28;45434;-54
2022/07/04 09:49:25;;;;;;;;;1.25;1.25;;;;;22.86;43.44;101884.06;5060164;28;45323;-54
2022/07/04 09:51:52;;;;;;;;;5.75;4.50;;;;;22.91;43.07;101883.63;5060477;28;45307;-54
2022/07/04 09:54:28;;;;;;;;;8.50;5.75;;;;;22.99;42.72;101891.84;5060670;28;45573;-56
2022/07/04 09:56:57;;;;;;;;;2.75;2.00;;;;;23.04;42.41;101886.88;5059705;28;45316;-53
2022/07/04 09:59:24;;;;;;;;;3.50;3.50;;;;;23.10;42.30;101895.22;5060106;28;45449;-55
2022/07/04 10:01:50;;;;;;;;;0.75;0.75;;;;;23.12;42.20;101885.16;5060011;28;45331;-52
2022/07/04 10:04:17;;;;;;;;;3.25;1.75;;;;;23.21;41.62;101894.19;5060114;28;45345;-53
2022/07/04 10:06:44;;;;;;;;;3.75;2.00;;;;;23.31;42.05;101888.81;5059550;28;45609;-55
2022/07/04 10:09:15;;;;;;;;;3.00;3.00;;;;;23.38;41.22;101895.28;5058664;28;45317;-55
2022/07/04 10:11:43;;;;;;;;;4.00;2.00;;;;;23.42;40.92;101882.41;5062287;28;45331;-52
2022/07/04 10:14:10;;;;;;;;;7.25;5.25;;;;;23.50;41.64;101880.66;5063382;28;45299;-50
2022/07/04 10:16:38;;;;;;;;;4.00;2.00;;;;;23.56;41.38;101884.63;5062898;28;46060;-49
2022/07/04 10:19:05;;;;;;;;;2.00;1.00;;;;;23.60;41.11;101880.66;5063494;28;45154;-52
2022/07/04 10:21:31;;;;;;;;;3.00;1.75;;;;;23.70;41.24;101878.78;5063459;28;45361;-52
2022/07/04 10:23:57;;;;;;;;;7.00;6.00;;;;;23.80;41.24;101870.66;5063573;28;45521;-51
2022/07/04 10:26:23;;;;;;;;;5.00;5.00;;;;;23.86;41.02;101878.16;5074586;28;45436;-53
2022/07/04 10:28:51;;;;;;;;;1.75;1.00;;;;;23.92;40.66;101877.53;5063328;28;45420;-55
2022/07/04 10:31:18;;;;;;;;;4.00;3.00;;;;;23.96;40.48;101870.84;5063018;28;45311;-53
2022/07/04 10:33:45;;;;;;;;;7.50;4.00;;;;;24.01;39.91;101871.22;5063089;28;45292;-51
2022/07/04 10:36:20;;;;;;;;;3.25;2.00;;;;;24.02;40.51;101867.56;5062655;28;45605;-55
2022/07/04 10:38:50;;;;;;;;;1.25;1.25;;;;;24.07;40.47;101877.88;5061782;28;45635;-54
2022/07/04 10:41:19;;;;;;;;;1.50;1.50;;;;;24.06;40.28;101871.63;5062914;28;45255;-53
2022/07/04 10:43:48;;;;;;;;;1.00;1.00;;;;;24.05;39.61;101871.78;5062830;28;45522;-54
2022/07/04 10:46:13;;;;;;;;;3.75;1.00;;;;;24.08;39.62;101871.47;5062357;28;46345;-55
2022/07/04 10:48:53;;;;;;;;;2.00;2.00;;;;;24.16;39.98;101863.50;5062619;28;45274;-55
2022/07/04 10:51:35;;;;;;;;;2.25;2.00;;;;;24.16;39.35;101864.31;5063043;28;45426;-50
2022/07/04 10:54:07;;;;;;;;;3.00;2.75;;;;;24.20;39.67;101867.59;5062826;28;45453;-53
2022/07/04 10:56:37;;;;;;;;;2.50;2.50;;;;;24.25;39.31;101867.94;5061971;28;46411;-54
2022/07/04 10:59:09;;;;;;;;;2.00;2.00;;;;;24.31;39.96;101870.03;5062346;28;45307;-54
2022/07/04 11:01:35;;;;;;;;;5.00;3.00;;;;;24.35;39.30;101871.47;5062457;28;45394;-52
2022/07/04 11:04:00;;;;;;;;;1.25;1.25;;;;;24.44;39.69;101870.56;5062529;28;46306;-53
2022/07/04 11:06:38;;;;;;;;;2.00;2.00;;;;;24.48;39.09;101865.69;5062522;28;45555;-53
2022/07/04 11:09:15;;;;;;;;;4.00;1.00;;;;;24.56;39.49;101862.22;5062672;28;45319;-53
2022/07/04 11:11:59;;;;;;;;;2.25;2.00;;;;;24.62;39.34;101858.91;5062270;28;45337;-54
2022/07/04 11:14:40;;;;;;;;;2.00;2.00;;;;;24.65;38.94;101862.16;5062487;28;45449;-54
2022/07/04 11:17:36;;;;;;;;;2.00;2.00;;;;;24.74;39.37;101861.22;5069704;28;46003;-54
2022/07/04 11:20:07;;;;;;;;;2.00;2.00;;;;;24.81;38.74;101853.38;5072237;28;45298;-54
2022/07/04 11:22:32;;;;;;;;;3.00;1.00;;;;;24.83;38.67;101850.50;5062574;28;45298;-52
2022/07/04 11:24:58;;;;;;;;;1.25;1.25;;;;;24.86;38.82;101858.25;5065425;28;45557;-51
2022/07/04 11:27:24;;;;;;;;;2.00;2.00;;;;;24.85;38.91;101849.34;5069405;27;45719;-54
2022/07/04 11:29:51;;;;;;;;;2.00;1.75;;;;;24.89;38.69;101849.88;5062074;28;45243;-51
2022/07/04 11:32:16;;;;;;;;;0.50;0.50;;;;;24.95;38.30;101858.16;5062493;28;45298;-55
2022/07/04 11:34:42;;;;;;;;;9.75;7.00;;;;;25.05;38.54;101856.25;5062200;28;45223;-54
2022/07/04 11:37:07;;;;;;;;;2.00;2.00;;;;;25.09;38.45;101846.00;5062056;28;45879;-55
2022/07/04 11:39:33;;;;;;;;;2.25;1.00;;;;;25.15;38.35;101848.06;5061854;28;45311;-52